createdAt,value
2019-01-24T00:00:42.990Z,3.70
2019-01-24T00:03:11.877Z,4.27
2019-01-24T00:05:40.372Z,3.77
2019-01-24T00:08:08.920Z,3.53
2019-01-24T00:10:37.489Z,4.10
2019-01-24T00:13:05.983Z,4.43
2019-01-24T00:15:34.476Z,3.80
2019-01-24T00:18:03.029Z,3.40
2019-01-24T00:20:31.496Z,3.43
2019-01-24T00:23:00.024Z,4.20
2019-01-24T00:25:28.594Z,4.23
2019-01-24T00:27:57.096Z,3.90
2019-01-24T00:30:25.817Z,4.63
2019-01-24T00:32:54.279Z,4.40
2019-01-24T00:35:22.756Z,5.30
2019-01-24T00:37:51.227Z,4.97
2019-01-24T00:40:21.148Z,4.57
2019-01-24T00:42:49.685Z,4.80
2019-01-24T00:45:18.991Z,4.50
2019-01-24T00:47:47.567Z,5.10
2019-01-24T00:50:16.908Z,5.30
2019-01-24T00:52:45.576Z,4.90
2019-01-24T00:55:16.976Z,5.00
2019-01-24T00:57:45.585Z,4.37
2019-01-24T01:00:20.227Z,5.30
2019-01-24T01:02:49.160Z,4.47
2019-01-24T01:05:17.758Z,4.40
2019-01-24T01:07:46.524Z,4.80
2019-01-24T01:10:15.761Z,4.40
2019-01-24T01:12:44.241Z,4.17
2019-01-24T01:15:18.191Z,5.07
2019-01-24T01:17:46.856Z,4.43
2019-01-24T01:20:18.290Z,4.67
2019-01-24T01:22:47.807Z,4.63
2019-01-24T01:25:16.374Z,4.60
2019-01-24T01:27:45.197Z,5.20
2019-01-24T01:30:16.713Z,4.40
2019-01-24T01:32:45.348Z,5.50
2019-01-24T01:35:14.532Z,4.40
2019-01-24T01:37:43.065Z,4.60
2019-01-24T01:40:14.278Z,4.23
2019-01-24T01:42:42.826Z,4.77
2019-01-24T01:45:14.352Z,5.07
2019-01-24T01:47:42.897Z,4.60
2019-01-24T01:50:14.824Z,4.33
2019-01-24T01:52:43.361Z,4.33
2019-01-24T01:55:11.902Z,4.47
2019-01-24T01:57:40.541Z,4.73
2019-01-24T02:00:14.681Z,4.87
2019-01-24T02:02:43.323Z,4.73
2019-01-24T02:05:12.540Z,5.20
2019-01-24T02:07:41.072Z,5.07
2019-01-24T02:10:12.648Z,4.93
2019-01-24T02:12:41.163Z,4.50
2019-01-24T02:15:12.113Z,4.93
2019-01-24T02:17:40.645Z,4.47
2019-01-24T02:20:12.180Z,4.60
2019-01-24T02:22:40.693Z,4.00
2019-01-24T02:25:10.745Z,4.63
2019-01-24T02:27:39.305Z,3.93
2019-01-24T02:30:28.389Z,5.07
2019-01-24T02:32:57.016Z,4.67
2019-01-24T02:35:25.481Z,4.40
2019-01-24T02:37:54.224Z,4.60
2019-01-24T02:40:22.925Z,4.77
2019-01-24T02:42:51.388Z,4.57
2019-01-24T02:45:22.731Z,4.83
2019-01-24T02:47:51.269Z,4.70
2019-01-24T02:50:22.257Z,4.57
2019-01-24T02:52:50.844Z,4.67
2019-01-24T02:55:19.380Z,4.07
2019-01-24T02:57:47.928Z,4.77
2019-01-24T03:00:18.664Z,4.20
2019-01-24T03:02:47.283Z,4.70
2019-01-24T03:05:21.912Z,4.77
2019-01-24T03:07:50.575Z,4.00
2019-01-24T03:10:19.368Z,4.50
2019-01-24T03:12:48.231Z,4.50
2019-01-24T03:15:19.537Z,4.50
2019-01-24T03:17:48.116Z,4.97
2019-01-24T03:20:17.612Z,4.40
2019-01-24T03:22:46.266Z,4.53
2019-01-24T03:25:16.665Z,4.30
2019-01-24T03:27:45.222Z,4.10
2019-01-24T03:30:16.227Z,4.27
2019-01-24T03:32:44.937Z,4.80
2019-01-24T03:35:25.628Z,4.37
2019-01-24T03:37:54.179Z,4.47
2019-01-24T03:40:22.717Z,4.63
2019-01-24T03:42:51.291Z,4.27
2019-01-24T03:45:20.316Z,3.97
2019-01-24T03:47:49.031Z,4.47
2019-01-24T03:50:19.254Z,4.07
2019-01-24T03:52:48.080Z,4.33
2019-01-24T03:55:19.069Z,4.40
2019-01-24T03:57:47.630Z,3.83
2019-01-24T04:00:19.259Z,4.33
2019-01-24T04:02:47.781Z,3.87
2019-01-24T04:05:16.718Z,4.53
2019-01-24T04:07:45.232Z,4.53
2019-01-24T04:10:16.227Z,4.60
2019-01-24T04:12:45.565Z,4.13
2019-01-24T04:15:17.124Z,4.50
2019-01-24T04:17:45.617Z,4.33
2019-01-24T04:20:14.455Z,4.13
2019-01-24T04:22:42.963Z,4.30
2019-01-24T04:25:11.845Z,4.30
2019-01-24T04:27:40.389Z,4.67
2019-01-24T04:30:14.564Z,4.17
2019-01-24T04:32:43.060Z,4.63
2019-01-24T04:35:19.444Z,4.23
2019-01-24T04:37:42.320Z,4.53
2019-01-24T04:40:13.521Z,4.40
2019-01-24T04:42:42.020Z,4.17
2019-01-24T04:45:12.524Z,4.17
2019-01-24T04:47:41.012Z,4.10
2019-01-24T04:50:11.901Z,3.87
2019-01-24T04:52:40.377Z,4.47
2019-01-24T04:55:11.518Z,4.60
2019-01-24T04:57:40.041Z,4.30
2019-01-24T05:00:14.456Z,4.93
2019-01-24T05:02:43.003Z,4.47
2019-01-24T05:05:11.629Z,5.03
2019-01-24T05:07:40.181Z,4.17
2019-01-24T05:10:09.348Z,4.13
2019-01-24T05:12:37.901Z,4.73
2019-01-24T05:15:07.137Z,4.10
2019-01-24T05:17:35.701Z,4.50
2019-01-24T05:20:07.546Z,3.93
2019-01-24T05:22:36.017Z,3.73
2019-01-24T05:25:07.096Z,4.47
2019-01-24T05:27:35.562Z,4.00
2019-01-24T05:30:09.937Z,3.53
2019-01-24T05:32:38.405Z,4.37
2019-01-24T05:35:09.227Z,4.57
2019-01-24T05:37:37.845Z,4.50
2019-01-24T05:40:08.424Z,3.97
2019-01-24T05:42:37.010Z,4.20
2019-01-24T05:45:08.425Z,4.70
2019-01-24T05:47:36.944Z,4.30
2019-01-24T05:50:08.973Z,4.40
2019-01-24T05:52:37.624Z,4.10
2019-01-24T05:55:08.706Z,4.20
2019-01-24T05:57:37.264Z,4.00
2019-01-24T06:00:08.841Z,3.50
2019-01-24T06:02:37.335Z,3.63
2019-01-24T06:05:08.748Z,4.37
2019-01-24T06:07:37.325Z,3.47
2019-01-24T06:10:11.468Z,3.80
2019-01-24T06:12:40.198Z,3.37
2019-01-24T06:15:11.910Z,4.83
2019-01-24T06:17:40.398Z,4.17
2019-01-24T06:20:10.510Z,7.07
2019-01-24T06:22:38.980Z,4.00
2019-01-24T06:25:10.267Z,4.33
2019-01-24T06:27:38.841Z,4.27
2019-01-24T06:30:10.389Z,4.13
2019-01-24T06:32:38.849Z,3.63
2019-01-24T06:35:07.573Z,4.03
2019-01-24T06:37:36.231Z,4.20
2019-01-24T06:40:07.968Z,4.03
2019-01-24T06:42:36.419Z,3.90
2019-01-24T06:45:07.999Z,4.27
2019-01-24T06:47:36.460Z,4.83
2019-01-24T06:50:08.066Z,4.70
2019-01-24T06:52:36.576Z,4.60
2019-01-24T06:55:08.093Z,3.57
2019-01-24T06:57:36.637Z,3.57
2019-01-24T07:00:11.100Z,3.93
2019-01-24T07:02:39.597Z,4.23
2019-01-24T07:05:08.217Z,4.20
2019-01-24T07:07:37.938Z,4.57
2019-01-24T07:10:09.900Z,4.40
2019-01-24T07:12:38.395Z,4.47
2019-01-24T07:15:12.711Z,5.27
2019-01-24T07:17:41.177Z,5.57
2019-01-24T07:20:12.588Z,5.43
2019-01-24T07:22:41.094Z,4.97
2019-01-24T07:25:13.105Z,4.07
2019-01-24T07:27:41.617Z,3.93
2019-01-24T07:30:13.137Z,3.83
2019-01-24T07:32:41.677Z,3.83
2019-01-24T07:35:15.543Z,3.53
2019-01-24T07:37:44.144Z,3.90
2019-01-24T07:40:17.851Z,4.47
2019-01-24T07:42:46.593Z,4.37
2019-01-24T07:45:24.142Z,4.03
2019-01-24T07:47:52.656Z,3.70
2019-01-24T07:50:21.131Z,3.83
2019-01-24T07:52:49.692Z,3.67
2019-01-24T07:55:18.161Z,4.40
2019-01-24T07:57:47.000Z,4.47
2019-01-24T08:00:21.095Z,3.93
2019-01-24T08:02:49.611Z,3.73
2019-01-24T08:05:18.415Z,4.10
2019-01-24T08:07:46.912Z,4.33
2019-01-24T08:10:17.648Z,4.67
2019-01-24T08:12:46.249Z,4.63
2019-01-24T08:15:17.469Z,3.67
2019-01-24T08:17:46.041Z,4.63
2019-01-24T08:20:20.098Z,4.37
2019-01-24T08:22:48.664Z,7.70
2019-01-24T08:25:17.515Z,4.50
2019-01-24T08:27:46.097Z,4.80
2019-01-24T08:30:20.513Z,5.30
2019-01-24T08:32:49.067Z,4.60
2019-01-24T08:35:17.604Z,4.20
2019-01-24T08:37:46.352Z,4.17
2019-01-24T08:40:19.417Z,3.80
2019-01-24T08:42:48.068Z,5.03
2019-01-24T08:45:16.856Z,6.93
2019-01-24T08:47:45.420Z,3.83
2019-01-24T08:50:19.409Z,4.13
2019-01-24T08:52:47.917Z,4.23
2019-01-24T08:55:22.257Z,4.30
2019-01-24T08:57:50.900Z,3.53
2019-01-24T09:00:21.212Z,4.30
2019-01-24T09:02:51.432Z,4.20
2019-01-24T09:05:20.560Z,4.20
2019-01-24T09:07:49.209Z,4.40
2019-01-24T09:10:23.307Z,3.53
2019-01-24T09:12:51.942Z,4.00
2019-01-24T09:15:20.597Z,4.07
2019-01-24T09:17:49.043Z,3.60
2019-01-24T09:20:19.565Z,4.20
2019-01-24T09:22:48.061Z,4.10
2019-01-24T09:25:16.664Z,4.27
2019-01-24T09:27:45.144Z,4.10
2019-01-24T09:30:25.788Z,3.60
2019-01-24T09:32:54.323Z,3.80
2019-01-24T09:35:23.003Z,3.40
2019-01-24T09:37:52.589Z,3.37
2019-01-24T09:40:22.650Z,3.50
2019-01-24T09:42:51.292Z,4.33
2019-01-24T09:45:25.547Z,4.20
2019-01-24T09:47:55.973Z,3.80
2019-01-24T09:50:26.815Z,3.80
2019-01-24T09:52:55.467Z,3.37
2019-01-24T09:55:23.942Z,3.80
2019-01-24T09:57:52.548Z,3.80
2019-01-24T10:00:29.900Z,3.97
2019-01-24T10:02:58.492Z,3.77
2019-01-24T10:05:27.361Z,5.10
2019-01-24T10:07:55.890Z,3.50
2019-01-24T10:10:26.716Z,4.20
2019-01-24T10:12:56.328Z,4.13
2019-01-24T10:15:24.885Z,3.77
2019-01-24T10:17:53.483Z,4.23
2019-01-24T10:20:23.777Z,3.73
2019-01-24T10:22:52.416Z,4.67
2019-01-24T10:25:23.484Z,3.70
2019-01-24T10:27:52.116Z,4.40
2019-01-24T10:30:23.280Z,4.73
2019-01-24T10:32:53.107Z,4.40
2019-01-24T10:35:21.638Z,4.50
2019-01-24T10:37:50.160Z,4.20
2019-01-24T10:40:24.344Z,3.57
2019-01-24T10:42:52.909Z,4.13
2019-01-24T10:45:22.004Z,4.17
2019-01-24T10:47:52.156Z,4.20
2019-01-24T10:50:25.961Z,3.50
2019-01-24T10:52:54.569Z,3.97
2019-01-24T10:55:25.316Z,3.73
2019-01-24T10:57:55.096Z,3.90
2019-01-24T11:00:35.504Z,4.20
2019-01-24T11:03:09.100Z,5.63
2019-01-24T11:05:37.585Z,5.10
2019-01-24T11:08:06.205Z,5.17
2019-01-24T11:10:35.144Z,4.67
2019-01-24T11:13:04.303Z,4.70
2019-01-24T11:15:32.765Z,4.30
2019-01-24T11:18:01.413Z,4.87
2019-01-24T11:20:29.957Z,5.00
2019-01-24T11:22:58.425Z,4.83
2019-01-24T11:25:37.122Z,3.97
2019-01-24T11:28:05.729Z,4.30
2019-01-24T11:30:34.624Z,4.43
2019-01-24T11:33:03.298Z,4.80
2019-01-24T11:35:34.554Z,5.60
2019-01-24T11:38:03.379Z,5.03
2019-01-24T11:40:31.884Z,5.40
2019-01-24T11:43:00.503Z,5.10
2019-01-24T11:45:32.261Z,5.00
2019-01-24T11:48:00.836Z,5.00
2019-01-24T11:50:29.460Z,4.67
2019-01-24T11:52:58.000Z,5.20
2019-01-24T11:55:26.557Z,4.87
2019-01-24T11:57:55.196Z,4.83
2019-01-24T12:00:36.554Z,5.20
2019-01-24T12:03:06.384Z,5.57
2019-01-24T12:05:34.912Z,5.53
2019-01-24T12:08:03.661Z,6.07
2019-01-24T12:10:32.226Z,5.50
2019-01-24T12:13:00.879Z,5.20
2019-01-24T12:15:32.932Z,5.87
2019-01-24T12:18:01.573Z,6.20
2019-01-24T12:20:30.182Z,5.63
2019-01-24T12:22:58.756Z,6.30
2019-01-24T12:25:27.300Z,6.13
2019-01-24T12:27:55.834Z,6.30
2019-01-24T12:30:27.212Z,6.60
2019-01-24T12:32:56.325Z,7.03
2019-01-24T12:35:24.860Z,6.67
2019-01-24T12:37:53.348Z,7.67
2019-01-24T12:40:21.969Z,8.43
2019-01-24T12:42:50.604Z,7.80
2019-01-24T12:45:30.554Z,9.00
2019-01-24T12:47:59.117Z,8.77
2019-01-24T12:50:27.727Z,9.63
2019-01-24T12:52:56.263Z,9.50
2019-01-24T12:55:24.764Z,10.17
2019-01-24T12:57:53.400Z,10.70
2019-01-24T13:00:24.956Z,9.77
2019-01-24T13:02:53.658Z,11.87
2019-01-24T13:05:22.292Z,12.90
2019-01-24T13:07:50.756Z,12.03
2019-01-24T13:10:21.562Z,10.80
2019-01-24T13:12:50.782Z,10.57
2019-01-24T13:15:22.162Z,13.03
2019-01-24T13:17:50.655Z,13.10
2019-01-24T13:20:19.212Z,13.17
2019-01-24T13:22:47.753Z,14.37
2019-01-24T13:25:21.870Z,15.30
2019-01-24T13:27:50.884Z,16.17
2019-01-24T13:30:24.868Z,16.67
2019-01-24T13:32:53.425Z,18.53
2019-01-24T13:35:21.976Z,18.80
2019-01-24T13:37:50.479Z,19.33
2019-01-24T13:40:21.003Z,19.40
2019-01-24T13:42:49.544Z,19.43
2019-01-24T13:45:20.600Z,18.83
2019-01-24T13:47:49.274Z,19.60
2019-01-24T13:50:18.616Z,19.87
2019-01-24T13:52:47.231Z,20.03
2019-01-24T13:55:15.869Z,20.43
2019-01-24T13:57:44.911Z,19.87
2019-01-24T14:00:16.651Z,19.97
2019-01-24T14:02:46.604Z,19.40
2019-01-24T14:05:19.857Z,19.50
2019-01-24T14:07:48.313Z,17.60
2019-01-24T14:10:18.156Z,17.90
2019-01-24T14:12:46.624Z,18.53
2019-01-24T14:15:19.258Z,17.93
2019-01-24T14:17:48.164Z,18.03
2019-01-24T14:20:21.522Z,18.60
2019-01-24T14:22:50.309Z,18.60
2019-01-24T14:25:20.350Z,18.90
2019-01-24T14:27:48.891Z,17.40
2019-01-24T14:30:25.915Z,17.67
2019-01-24T14:32:54.585Z,19.03
2019-01-24T14:35:23.082Z,18.70
2019-01-24T14:37:51.721Z,18.60
2019-01-24T14:40:20.590Z,17.37
2019-01-24T14:42:49.209Z,18.50
2019-01-24T14:45:27.262Z,17.57
2019-01-24T14:47:56.322Z,18.17
2019-01-24T14:50:27.907Z,18.53
2019-01-24T14:52:57.080Z,19.03
2019-01-24T14:55:25.555Z,17.90
2019-01-24T14:57:54.095Z,18.23
2019-01-24T15:00:33.658Z,18.90
2019-01-24T15:03:02.431Z,19.70
2019-01-24T15:05:30.986Z,17.63
2019-01-24T15:07:59.491Z,17.67
2019-01-24T15:10:28.136Z,18.67
2019-01-24T15:12:56.706Z,18.80
2019-01-24T15:15:25.497Z,18.23
2019-01-24T15:17:53.984Z,17.80
2019-01-24T15:20:22.600Z,18.27
2019-01-24T15:22:51.152Z,18.43
2019-01-24T15:25:22.361Z,17.90
2019-01-24T15:27:50.897Z,16.87
2019-01-24T15:30:27.104Z,16.67
2019-01-24T15:32:55.823Z,17.67
2019-01-24T15:35:24.368Z,17.90
2019-01-24T15:37:54.701Z,17.57
2019-01-24T15:40:31.688Z,17.13
2019-01-24T15:43:00.322Z,17.57
2019-01-24T15:45:29.108Z,16.53
2019-01-24T15:47:57.771Z,16.43
2019-01-24T15:50:26.387Z,16.97
2019-01-24T15:52:55.056Z,17.30
2019-01-24T15:55:23.605Z,16.47
2019-01-24T15:57:52.090Z,16.93
2019-01-24T16:00:23.149Z,16.20
2019-01-24T16:02:51.732Z,17.97
2019-01-24T16:05:20.403Z,17.57
2019-01-24T16:07:49.250Z,17.13
2019-01-24T16:10:22.708Z,15.60
2019-01-24T16:12:51.720Z,16.80
2019-01-24T16:15:26.072Z,17.30
2019-01-24T16:17:54.640Z,17.20
2019-01-24T16:20:25.713Z,17.50
2019-01-24T16:22:54.199Z,17.03
2019-01-24T16:25:28.197Z,16.97
2019-01-24T16:27:56.797Z,16.63
2019-01-24T16:30:27.896Z,16.20
2019-01-24T16:32:56.522Z,17.37
2019-01-24T16:35:25.299Z,17.67
2019-01-24T16:37:53.864Z,17.47
2019-01-24T16:40:25.036Z,16.77
2019-01-24T16:42:53.606Z,17.27
2019-01-24T16:45:24.558Z,18.20
2019-01-24T16:47:53.168Z,17.17
2019-01-24T16:50:23.691Z,18.00
2019-01-24T16:52:52.494Z,17.33
2019-01-24T16:55:21.115Z,17.53
2019-01-24T16:57:51.448Z,18.37
2019-01-24T17:00:32.228Z,17.97
2019-01-24T17:03:00.980Z,17.67
2019-01-24T17:05:29.612Z,18.20
2019-01-24T17:07:58.176Z,17.87
2019-01-24T17:10:30.127Z,18.37
2019-01-24T17:12:58.742Z,17.57
2019-01-24T17:15:27.318Z,18.13
2019-01-24T17:17:55.900Z,19.70
2019-01-24T17:20:26.646Z,18.40
2019-01-24T17:22:55.289Z,18.07
2019-01-24T17:25:26.234Z,17.77
2019-01-24T17:27:54.844Z,18.53
2019-01-24T17:30:30.079Z,18.17
2019-01-24T17:32:59.342Z,18.00
2019-01-24T17:35:28.060Z,18.70
2019-01-24T17:37:58.305Z,18.80
2019-01-24T17:40:34.258Z,19.27
2019-01-24T17:43:04.283Z,18.33
2019-01-24T17:45:33.012Z,18.57
2019-01-24T17:48:03.874Z,18.10
2019-01-24T17:50:32.386Z,19.40
2019-01-24T17:53:00.851Z,19.43
2019-01-24T17:55:38.073Z,18.73
2019-01-24T17:58:08.661Z,17.43
2019-01-24T18:00:38.760Z,19.20
2019-01-24T18:03:07.509Z,17.97
2019-01-24T18:05:35.989Z,18.53
2019-01-24T18:08:04.596Z,17.60
2019-01-24T18:10:33.240Z,18.17
2019-01-24T18:13:02.925Z,19.23
2019-01-24T18:15:36.495Z,19.30
2019-01-24T18:18:11.272Z,18.50
2019-01-24T18:20:39.921Z,17.93
2019-01-24T18:23:13.113Z,18.00
2019-01-24T18:25:41.590Z,17.97
2019-01-24T18:28:11.520Z,18.60
2019-01-24T18:30:40.177Z,18.80
2019-01-24T18:33:08.895Z,19.23
2019-01-24T18:35:37.537Z,18.43
2019-01-24T18:38:06.280Z,18.30
2019-01-24T18:40:34.837Z,18.97
2019-01-24T18:43:04.243Z,18.10
2019-01-24T18:45:35.865Z,18.80
2019-01-24T18:48:05.466Z,18.77
2019-01-24T18:50:34.048Z,19.13
2019-01-24T18:53:02.612Z,18.37
2019-01-24T18:55:31.085Z,19.00
2019-01-24T18:57:59.606Z,18.60
2019-01-24T19:00:32.627Z,20.23
2019-01-24T19:03:01.218Z,18.60
2019-01-24T19:05:29.952Z,19.93
2019-01-24T19:07:58.445Z,18.77
2019-01-24T19:10:26.941Z,19.30
2019-01-24T19:12:55.478Z,17.93
2019-01-24T19:15:25.010Z,20.03
2019-01-24T19:17:53.736Z,19.80
2019-01-24T19:20:22.254Z,19.27
2019-01-24T19:22:50.885Z,19.00
2019-01-24T19:25:21.550Z,19.33
2019-01-24T19:27:50.617Z,19.90
2019-01-24T19:30:25.314Z,19.20
2019-01-24T19:32:54.280Z,19.53
2019-01-24T19:35:22.910Z,18.50
2019-01-24T19:37:51.468Z,18.73
2019-01-24T19:40:22.587Z,19.03
2019-01-24T19:42:51.097Z,18.67
2019-01-24T19:45:22.360Z,20.47
2019-01-24T19:47:51.106Z,20.50
2019-01-24T19:50:22.181Z,19.73
2019-01-24T19:52:50.826Z,20.43
2019-01-24T19:55:19.563Z,19.97
2019-01-24T19:57:48.769Z,20.67
2019-01-24T20:00:25.517Z,20.50
2019-01-24T20:02:54.244Z,19.50
2019-01-24T20:05:23.063Z,19.73
2019-01-24T20:07:51.672Z,20.40
2019-01-24T20:10:23.080Z,19.93
2019-01-24T20:12:51.620Z,19.80
2019-01-24T20:15:25.190Z,20.17
2019-01-24T20:17:53.837Z,20.80
2019-01-24T20:20:22.473Z,20.57
2019-01-24T20:22:51.685Z,19.93
2019-01-24T20:25:22.717Z,21.43
2019-01-24T20:27:51.221Z,21.40
2019-01-24T20:30:23.553Z,20.87
2019-01-24T20:32:52.329Z,20.37
2019-01-24T20:35:23.860Z,20.73
2019-01-24T20:37:52.403Z,19.53
2019-01-24T20:40:21.041Z,21.97
2019-01-24T20:42:49.660Z,21.40
2019-01-24T20:45:18.208Z,20.53
2019-01-24T20:47:46.766Z,21.03
2019-01-24T20:50:16.553Z,20.87
2019-01-24T20:52:45.052Z,21.33
2019-01-24T20:55:15.885Z,20.03
2019-01-24T20:57:44.616Z,19.00
2019-01-24T21:00:16.332Z,22.13
2019-01-24T21:02:44.983Z,21.07
2019-01-24T21:05:17.048Z,22.30
2019-01-24T21:07:45.565Z,20.70
2019-01-24T21:10:17.234Z,20.47
2019-01-24T21:12:45.801Z,20.80
2019-01-24T21:15:17.024Z,21.50
2019-01-24T21:17:45.569Z,22.10
2019-01-24T21:20:17.200Z,20.27
2019-01-24T21:22:45.824Z,20.10
2019-01-24T21:25:17.005Z,20.97
2019-01-24T21:27:45.517Z,21.87
2019-01-24T21:30:17.099Z,21.67
2019-01-24T21:32:45.666Z,20.47
2019-01-24T21:35:14.809Z,20.20
2019-01-24T21:37:43.300Z,22.07
2019-01-24T21:40:15.261Z,19.33
2019-01-24T21:42:43.903Z,21.30
2019-01-24T21:45:18.472Z,21.17
2019-01-24T21:47:46.969Z,20.20
2019-01-24T21:50:18.281Z,22.27
2019-01-24T21:52:46.790Z,20.17
2019-01-24T21:55:16.597Z,20.17
2019-01-24T21:57:45.134Z,20.33
2019-01-24T22:00:22.255Z,21.20
2019-01-24T22:02:50.968Z,20.83
2019-01-24T22:05:19.904Z,20.93
2019-01-24T22:07:48.547Z,21.27
2019-01-24T22:10:19.824Z,21.90
2019-01-24T22:12:49.080Z,22.07
2019-01-24T22:15:20.160Z,21.60
2019-01-24T22:17:48.728Z,20.73
2019-01-24T22:20:17.850Z,21.77
2019-01-24T22:22:46.557Z,21.33
2019-01-24T22:25:17.681Z,21.03
2019-01-24T22:27:46.221Z,22.20
2019-01-24T22:30:17.764Z,20.73
2019-01-24T22:32:46.277Z,20.87
2019-01-24T22:35:24.900Z,21.17
2019-01-24T22:37:53.484Z,22.30
2019-01-24T22:40:21.956Z,20.40
2019-01-24T22:42:50.509Z,21.33
2019-01-24T22:45:21.481Z,21.23
2019-01-24T22:47:49.960Z,20.93
2019-01-24T22:50:18.612Z,23.03
2019-01-24T22:52:47.323Z,22.10
2019-01-24T22:55:16.137Z,21.20
2019-01-24T22:57:44.673Z,21.03
2019-01-24T23:00:47.678Z,21.67
2019-01-24T23:03:24.785Z,21.00
2019-01-24T23:05:53.267Z,21.43
2019-01-24T23:08:21.758Z,21.70
2019-01-24T23:10:50.245Z,21.30
2019-01-24T23:13:19.688Z,21.23
2019-01-24T23:15:48.254Z,23.50
2019-01-24T23:18:16.916Z,20.93
2019-01-24T23:20:45.469Z,21.07
2019-01-24T23:23:14.041Z,21.50
2019-01-24T23:25:42.575Z,22.70
2019-01-24T23:28:11.183Z,21.90
2019-01-24T23:30:41.215Z,21.60
2019-01-24T23:33:09.700Z,22.00
2019-01-24T23:35:38.400Z,22.70
2019-01-24T23:38:07.053Z,20.37
2019-01-24T23:40:35.521Z,21.30
2019-01-24T23:43:04.956Z,22.20
2019-01-24T23:45:33.416Z,23.13
2019-01-24T23:48:01.905Z,22.50
2019-01-24T23:50:30.545Z,22.50
2019-01-24T23:52:59.053Z,21.30
2019-01-24T23:55:27.532Z,22.23
2019-01-24T23:57:56.053Z,21.73
